Time;durP1;ratioP1;P1;durP2;ratioP2;P2;SDS_P1;SDS_P2;PMS_P1;PMS_P2;Temp;Humidity;BMP_temperature;BMP_pressure;BME280_temperature;BME280_humidity;BME280_pressure;Samples;Min_cycle;Max_cycle;Signal;HPM_P1;HPM_P2
2023/10/20 00:00:39;;;;;;;4.60;4.20;;;16.60;99.90;;;;;;4968610;28;20484;-69
2023/10/20 00:03:08;;;;;;;4.70;4.40;;;16.60;99.90;;;;;;4971600;28;20443;-69
2023/10/20 00:05:34;;;;;;;4.77;4.30;;;16.60;99.90;;;;;;4954194;28;20439;-69
2023/10/20 00:08:05;;;;;;;4.47;4.13;;;16.60;99.90;;;;;;4962922;28;20481;-70
2023/10/20 00:10:37;;;;;;;4.60;4.30;;;16.60;99.90;;;;;;4968520;28;20829;-69
2023/10/20 00:13:05;;;;;;;5.00;4.50;;;16.60;99.90;;;;;;4973875;28;20844;-69
2023/10/20 00:15:33;;;;;;;4.40;4.10;;;16.60;99.90;;;;;;4943203;28;21008;-70
2023/10/20 00:18:02;;;;;;;5.50;4.30;;;16.60;99.90;;;;;;4968019;28;20852;-69
2023/10/20 00:20:28;;;;;;;5.17;4.77;;;16.60;99.90;;;;;;4960143;28;20570;-69
2023/10/20 00:22:57;;;;;;;4.60;4.20;;;16.60;99.90;;;;;;4973815;28;20435;-69
2023/10/20 00:25:23;;;;;;;4.47;4.17;;;16.60;99.90;;;;;;4969189;28;20567;-69
2023/10/20 00:27:49;;;;;;;4.47;4.07;;;16.60;99.90;;;;;;4948218;28;20906;-69
2023/10/20 00:30:18;;;;;;;5.00;4.60;;;16.60;99.90;;;;;;4950596;28;20523;-69
2023/10/20 00:32:45;;;;;;;5.00;4.60;;;16.60;99.90;;;;;;4960416;28;20971;-69
2023/10/20 00:35:13;;;;;;;4.00;3.70;;;16.60;99.90;;;;;;4968050;28;20563;-69
2023/10/20 00:37:40;;;;;;;6.57;4.60;;;16.60;99.90;;;;;;4951004;28;20470;-69
2023/10/20 00:40:08;;;;;;;4.03;3.73;;;16.60;99.90;;;;;;4941536;28;20463;-69
2023/10/20 00:42:35;;;;;;;4.80;4.33;;;16.60;99.90;;;;;;4926193;28;20432;-69
2023/10/20 00:45:08;;;;;;;4.27;3.87;;;16.60;99.90;;;;;;4966807;28;20488;-69
2023/10/20 00:47:36;;;;;;;7.70;4.03;;;16.60;99.90;;;;;;4953331;28;21364;-69
2023/10/20 00:50:04;;;;;;;4.90;4.50;;;16.60;99.90;;;;;;4969585;28;21074;-69
2023/10/20 00:52:30;;;;;;;4.90;4.50;;;16.60;99.90;;;;;;4944573;28;21016;-70
2023/10/20 00:54:58;;;;;;;4.90;4.60;;;16.60;99.90;;;;;;4939878;28;20483;-69
2023/10/20 00:57:26;;;;;;;4.63;4.20;;;16.60;99.90;;;;;;4959665;28;20446;-69
2023/10/20 00:59:52;;;;;;;4.93;4.53;;;16.60;99.90;;;;;;4969105;28;20569;-69
2023/10/20 01:02:18;;;;;;;5.17;4.70;;;16.60;99.90;;;;;;4958507;28;20455;-69
2023/10/20 01:04:48;;;;;;;4.80;4.30;;;16.60;99.90;;;;;;4950217;28;21338;-69
2023/10/20 01:07:16;;;;;;;4.47;4.10;;;16.60;99.90;;;;;;4939334;28;20519;-69
2023/10/20 01:09:46;;;;;;;4.80;4.37;;;16.60;99.90;;;;;;4954584;28;21283;-70
2023/10/20 01:12:15;;;;;;;4.83;4.50;;;16.60;99.90;;;;;;4958799;28;20428;-69
2023/10/20 01:14:43;;;;;;;4.50;4.10;;;16.60;99.90;;;;;;4935354;28;20449;-69
2023/10/20 01:17:10;;;;;;;4.80;4.40;;;16.60;99.90;;;;;;4977197;23;20518;-72
2023/10/20 01:19:37;;;;;;;5.07;4.67;;;16.60;99.90;;;;;;4960535;28;21039;-72
2023/10/20 01:22:06;;;;;;;4.50;4.20;;;16.60;99.90;;;;;;4957369;28;20753;-72
2023/10/20 01:24:33;;;;;;;4.50;4.10;;;16.60;99.90;;;;;;4947056;28;20452;-72
2023/10/20 01:26:59;;;;;;;4.43;4.13;;;16.60;99.90;;;;;;4942018;29;20420;-72
2023/10/20 01:29:25;;;;;;;4.87;4.37;;;16.60;99.90;;;;;;4947357;28;20868;-72
2023/10/20 01:31:51;;;;;;;4.80;4.40;;;16.60;99.90;;;;;;4966144;28;20451;-71
2023/10/20 01:34:17;;;;;;;4.20;3.80;;;16.60;99.90;;;;;;4949381;28;20454;-72
2023/10/20 01:36:48;;;;;;;4.70;4.30;;;16.60;99.90;;;;;;4948628;28;21048;-72
2023/10/20 01:39:15;;;;;;;5.13;4.73;;;16.60;99.90;;;;;;4947277;28;20444;-72
2023/10/20 01:41:42;;;;;;;4.10;3.80;;;16.60;99.90;;;;;;4947391;28;20454;-72
2023/10/20 01:44:08;;;;;;;5.13;4.63;;;16.60;99.90;;;;;;4956324;28;20445;-72
2023/10/20 01:46:42;;;;;;;4.70;4.30;;;16.50;99.90;;;;;;4945402;28;21325;-72
2023/10/20 01:49:08;;;;;;;4.83;4.43;;;16.60;99.90;;;;;;4963724;28;21013;-72
2023/10/20 01:51:36;;;;;;;4.00;3.70;;;16.50;99.90;;;;;;4946230;28;20463;-72
2023/10/20 01:54:03;;;;;;;4.30;4.00;;;16.50;99.90;;;;;;4946554;28;20467;-72
2023/10/20 01:56:29;;;;;;;4.43;4.13;;;16.50;99.90;;;;;;4944265;28;20696;-72
2023/10/20 01:58:55;;;;;;;4.43;4.13;;;16.50;99.90;;;;;;4924594;28;20456;-72
2023/10/20 02:01:25;;;;;;;5.63;3.90;;;16.50;99.90;;;;;;4942984;28;21265;-72
2023/10/20 02:03:51;;;;;;;4.23;3.93;;;16.50;99.90;;;;;;4949589;28;20439;-72
2023/10/20 02:06:20;;;;;;;4.37;4.07;;;16.50;99.90;;;;;;4946820;28;21211;-72
2023/10/20 02:08:46;;;;;;;3.97;3.67;;;16.60;99.90;;;;;;4930478;28;20554;-72
2023/10/20 02:11:15;;;;;;;4.07;3.77;;;16.50;99.90;;;;;;4946289;28;20534;-72
2023/10/20 02:13:42;;;;;;;4.53;4.13;;;16.50;99.90;;;;;;4946527;28;20596;-72
2023/10/20 02:16:11;;;;;;;3.93;3.63;;;16.50;99.90;;;;;;4929374;28;20443;-72
2023/10/20 02:18:38;;;;;;;4.80;4.40;;;16.60;99.90;;;;;;4946893;28;20498;-72
2023/10/20 02:21:04;;;;;;;4.57;4.10;;;16.50;99.90;;;;;;4960949;28;20486;-72
2023/10/20 02:23:31;;;;;;;4.90;4.57;;;16.50;99.90;;;;;;4945119;28;20540;-73
2023/10/20 02:26:07;;;;;;;3.87;3.63;;;16.60;99.90;;;;;;4946297;28;20499;-73
2023/10/20 02:28:34;;;;;;;4.60;4.30;;;16.50;99.90;;;;;;4955336;28;20473;-73
2023/10/20 02:31:01;;;;;;;4.60;4.17;;;16.50;99.90;;;;;;4943112;28;21437;-73
2023/10/20 02:33:27;;;;;;;4.70;4.40;;;16.50;99.90;;;;;;4942719;28;20424;-73
2023/10/20 02:35:54;;;;;;;4.50;4.10;;;16.50;99.90;;;;;;4912888;28;20478;-73
2023/10/20 02:38:20;;;;;;;4.80;4.50;;;16.60;99.90;;;;;;4945436;28;20511;-73
2023/10/20 02:40:51;;;;;;;10.07;4.40;;;16.50;99.90;;;;;;4938310;28;20441;-73
2023/10/20 02:43:21;;;;;;;4.63;4.33;;;16.50;99.90;;;;;;4944818;28;20461;-73
2023/10/20 02:45:52;;;;;;;4.23;3.93;;;16.50;99.90;;;;;;4941669;28;20451;-73
2023/10/20 02:48:22;;;;;;;4.73;4.43;;;16.50;99.90;;;;;;4950771;28;20473;-73
2023/10/20 02:50:51;;;;;;;4.33;4.03;;;16.50;99.90;;;;;;4945545;28;20437;-73
2023/10/20 02:53:19;;;;;;;4.53;4.13;;;16.50;99.90;;;;;;4945374;28;20470;-73
2023/10/20 02:55:48;;;;;;;4.43;4.03;;;16.60;99.90;;;;;;4976674;28;20448;-73
2023/10/20 02:58:14;;;;;;;4.13;3.83;;;16.50;99.90;;;;;;4955029;28;20520;-73
2023/10/20 03:00:45;;;;;;;4.20;3.90;;;16.60;99.90;;;;;;4960152;28;20442;-73
2023/10/20 03:03:17;;;;;;;4.63;4.33;;;16.50;99.90;;;;;;4945189;28;20283;-73
2023/10/20 03:05:46;;;;;;;4.50;4.20;;;16.50;99.90;;;;;;4944990;28;20926;-73
2023/10/20 03:08:13;;;;;;;4.33;4.03;;;16.50;99.90;;;;;;4927961;28;20842;-73
2023/10/20 03:10:39;;;;;;;4.97;4.57;;;16.50;99.90;;;;;;4945332;28;20435;-73
2023/10/20 03:13:10;;;;;;;4.90;4.60;;;16.50;99.90;;;;;;4955236;28;20448;-73
2023/10/20 03:15:38;;;;;;;4.20;3.90;;;16.60;99.90;;;;;;4937986;28;20530;-73
2023/10/20 03:18:13;;;;;;;4.77;4.40;;;16.50;99.90;;;;;;4945491;28;20491;-73
2023/10/20 03:20:43;;;;;;;4.10;3.80;;;16.60;99.90;;;;;;4944734;28;20455;-73
2023/10/20 03:23:10;;;;;;;4.40;4.00;;;16.50;99.90;;;;;;4969317;28;20444;-73
2023/10/20 03:25:36;;;;;;;4.10;3.80;;;16.50;99.90;;;;;;4944752;28;20457;-73
2023/10/20 03:28:03;;;;;;;4.63;4.23;;;16.50;99.90;;;;;;4944844;28;20470;-73
2023/10/20 03:30:29;;;;;;;4.57;4.17;;;16.50;99.90;;;;;;4961401;28;20457;-73
2023/10/20 03:32:57;;;;;;;4.50;4.10;;;16.50;99.90;;;;;;4929690;28;20426;-73
2023/10/20 03:35:23;;;;;;;4.10;3.70;;;16.50;99.90;;;;;;4929538;28;20588;-73
2023/10/20 03:37:56;;;;;;;5.03;4.63;;;16.50;99.90;;;;;;4929349;28;20635;-73
2023/10/20 03:40:37;;;;;;;4.73;4.23;;;16.50;99.90;;;;;;4944824;28;20485;-72
2023/10/20 03:43:09;;;;;;;3.90;3.60;;;16.50;99.90;;;;;;4944954;28;20427;-73
2023/10/20 03:45:48;;;;;;;3.67;3.47;;;16.50;99.90;;;;;;4962482;28;20526;-72
2023/10/20 03:48:16;;;;;;;3.50;3.30;;;16.50;99.90;;;;;;4944610;28;20557;-73
2023/10/20 03:50:49;;;;;;;3.90;3.60;;;16.50;99.90;;;;;;4959763;28;20436;-73
2023/10/20 03:53:29;;;;;;;3.80;3.50;;;16.60;99.90;;;;;;4959066;28;20466;-73
2023/10/20 03:56:04;;;;;;;4.17;3.77;;;16.50;99.90;;;;;;4944736;28;20463;-72
2023/10/20 03:58:34;;;;;;;3.90;3.60;;;16.50;99.90;;;;;;4960937;28;20985;-73
2023/10/20 04:01:03;;;;;;;4.37;4.07;;;16.60;99.90;;;;;;4976472;28;20439;-73
2023/10/20 04:03:32;;;;;;;3.87;3.67;;;16.50;99.90;;;;;;4928862;28;20452;-73
2023/10/20 04:06:01;;;;;;;3.90;3.67;;;16.50;99.90;;;;;;4962488;28;20446;-73
2023/10/20 04:08:29;;;;;;;4.50;4.20;;;16.50;99.90;;;;;;4944199;28;21005;-73
2023/10/20 04:10:58;;;;;;;4.20;3.90;;;16.60;99.90;;;;;;4929047;28;20435;-73
2023/10/20 04:13:32;;;;;;;3.80;3.60;;;16.60;99.90;;;;;;4960677;28;20446;-73
2023/10/20 04:16:00;;;;;;;4.37;4.07;;;16.50;99.90;;;;;;4945081;28;20443;-73
2023/10/20 04:18:32;;;;;;;4.43;4.13;;;16.60;99.90;;;;;;4961853;28;20455;-73
2023/10/20 04:20:58;;;;;;;4.10;3.90;;;16.60;99.90;;;;;;4940138;28;20435;-73
2023/10/20 04:23:26;;;;;;;4.23;3.73;;;16.60;99.90;;;;;;4925208;28;20551;-73
2023/10/20 04:25:52;;;;;;;4.53;4.23;;;16.60;99.90;;;;;;4943859;28;20561;-73
2023/10/20 04:28:20;;;;;;;4.00;3.70;;;16.50;99.90;;;;;;4928490;28;20501;-72
2023/10/20 04:42:00;;;;;;;4.43;4.10;;;16.50;99.90;;;;;;4943716;28;20508;-71
2023/10/20 04:54:50;;;;;;;3.73;3.53;;;16.50;99.90;;;;;;4961278;28;20944;-71
2023/10/20 05:07:58;;;;;;;3.77;3.57;;;16.50;99.90;;;;;;4957942;28;20475;-71
2023/10/20 05:10:27;;;;;;;4.20;3.90;;;16.50;99.90;;;;;;4962527;28;20461;-71
2023/10/20 05:12:55;;;;;;;4.57;4.17;;;16.50;99.90;;;;;;4931262;28;20972;-72
2023/10/20 05:15:23;;;;;;;3.70;3.40;;;16.50;99.90;;;;;;4931001;28;20443;-72
2023/10/20 05:18:17;;;;;;;3.90;3.60;;;16.50;99.90;;;;;;4963824;28;20455;-71
2023/10/20 05:20:46;;;;;;;3.80;3.60;;;16.50;99.90;;;;;;4928141;28;20545;-71
2023/10/20 05:23:14;;;;;;;3.80;3.60;;;16.50;99.90;;;;;;4943090;28;20444;-71
2023/10/20 05:25:49;;;;;;;3.87;3.57;;;16.50;99.90;;;;;;4948213;23;20867;-70
2023/10/20 05:28:18;;;;;;;4.23;3.83;;;16.50;99.90;;;;;;4961070;28;20506;-72
2023/10/20 05:30:47;;;;;;;4.43;4.10;;;16.50;99.90;;;;;;4919768;28;20529;-72
2023/10/20 05:33:15;;;;;;;4.80;4.30;;;16.50;99.90;;;;;;4963365;28;20436;-68
2023/10/20 05:35:41;;;;;;;4.90;4.50;;;16.50;99.90;;;;;;4978786;28;20515;-68
2023/10/20 05:38:07;;;;;;;3.80;3.50;;;16.50;99.90;;;;;;4970988;28;20506;-74
2023/10/20 05:40:35;;;;;;;4.20;3.90;;;16.50;99.90;;;;;;4971945;28;20929;-73
2023/10/20 05:43:06;;;;;;;4.27;3.97;;;16.50;99.90;;;;;;4951525;28;20462;-73
2023/10/20 05:45:41;;;;;;;3.90;3.60;;;16.50;99.90;;;;;;4971367;28;20454;-74
2023/10/20 05:48:12;;;;;;;4.20;3.80;;;16.50;99.90;;;;;;4974586;28;20554;-75
2023/10/20 05:50:38;;;;;;;5.10;4.27;;;16.50;99.90;;;;;;4939692;28;20421;-72
2023/10/20 05:53:05;;;;;;;4.07;3.77;;;16.50;99.90;;;;;;4918385;28;20470;-72
2023/10/20 05:55:34;;;;;;;4.77;4.30;;;16.50;99.90;;;;;;4947837;28;20428;-72
2023/10/20 05:58:03;;;;;;;4.13;3.83;;;16.50;99.90;;;;;;4942569;28;20537;-71
2023/10/20 06:00:29;;;;;;;4.60;4.30;;;16.50;99.90;;;;;;4956235;28;20445;-71
2023/10/20 06:02:55;;;;;;;4.53;4.23;;;16.50;99.90;;;;;;4954312;28;20446;-72
2023/10/20 06:05:24;;;;;;;4.90;4.50;;;16.50;99.90;;;;;;4954412;28;20846;-72
2023/10/20 06:07:50;;;;;;;5.20;4.80;;;16.50;99.90;;;;;;4981660;28;20470;-71
2023/10/20 06:10:22;;;;;;;4.80;4.50;;;16.50;99.90;;;;;;4954286;28;20501;-72
2023/10/20 06:12:52;;;;;;;5.40;4.90;;;16.50;99.90;;;;;;4951917;28;20426;-70
2023/10/20 06:15:19;;;;;;;4.93;4.47;;;16.50;99.90;;;;;;4961854;28;21189;-70
2023/10/20 06:17:50;;;;;;;4.60;4.30;;;16.50;99.90;;;;;;4975986;28;20637;-70
2023/10/20 06:20:18;;;;;;;4.80;4.40;;;16.50;99.90;;;;;;4948495;28;20447;-73
2023/10/20 06:22:45;;;;;;;5.10;4.70;;;16.50;99.90;;;;;;4930983;28;20465;-70
2023/10/20 06:25:16;;;;;;;5.17;4.67;;;16.50;99.90;;;;;;4979577;28;21126;-70
2023/10/20 06:27:43;;;;;;;5.67;5.17;;;16.50;99.90;;;;;;4930890;28;20569;-70
2023/10/20 06:30:22;;;;;;;4.40;4.00;;;16.50;99.90;;;;;;4946984;28;21229;-70
2023/10/20 06:35:33;;;;;;;5.03;4.63;;;16.50;99.90;;;;;;4945083;28;20431;-70
2023/10/20 06:40:34;;;;;;;5.50;5.10;;;16.50;99.90;;;;;;4965896;28;20528;-70
2023/10/20 06:43:02;;;;;;;5.20;4.80;;;16.50;99.90;;;;;;4958362;28;20450;-70
2023/10/20 06:45:31;;;;;;;4.97;4.47;;;16.50;99.90;;;;;;4955748;28;20501;-71
2023/10/20 06:47:58;;;;;;;5.20;4.80;;;16.50;99.90;;;;;;4944202;28;20471;-71
2023/10/20 06:50:24;;;;;;;5.10;4.70;;;16.50;99.90;;;;;;4948457;28;20456;-71
2023/10/20 06:52:50;;;;;;;4.83;4.43;;;16.50;99.90;;;;;;4920751;28;20459;-70
2023/10/20 06:55:16;;;;;;;5.03;4.57;;;16.50;99.90;;;;;;4948012;28;20537;-71
2023/10/20 06:57:44;;;;;;;5.27;4.87;;;16.50;99.90;;;;;;4946458;28;21270;-71
2023/10/20 07:00:17;;;;;;;5.53;4.60;;;16.50;99.90;;;;;;4930927;28;20476;-72
2023/10/20 07:02:44;;;;;;;4.90;4.50;;;16.50;99.90;;;;;;4947034;28;20438;-70
2023/10/20 07:05:10;;;;;;;5.23;4.73;;;16.50;99.90;;;;;;4928903;28;20993;-71
2023/10/20 07:07:39;;;;;;;5.83;4.83;;;16.50;99.90;;;;;;4965117;28;20481;-71
2023/10/20 07:10:10;;;;;;;5.37;4.87;;;16.50;99.90;;;;;;4941677;28;20459;-72
2023/10/20 07:12:37;;;;;;;6.10;5.50;;;16.50;99.90;;;;;;4963950;28;20885;-72
2023/10/20 07:15:05;;;;;;;5.33;4.93;;;16.50;99.90;;;;;;4971007;28;20433;-72
2023/10/20 07:17:32;;;;;;;5.17;4.70;;;16.50;99.90;;;;;;4946607;28;21099;-73
2023/10/20 07:20:04;;;;;;;5.10;4.70;;;16.50;99.90;;;;;;4951871;28;20452;-73
2023/10/20 07:22:33;;;;;;;4.97;4.57;;;16.50;99.90;;;;;;4921409;28;20542;-73
2023/10/20 07:25:03;;;;;;;4.70;4.30;;;16.50;99.90;;;;;;4965083;28;20925;-73
2023/10/20 07:27:29;;;;;;;4.90;4.47;;;16.50;99.90;;;;;;4975991;28;20478;-73
2023/10/20 07:29:57;;;;;;;5.27;4.83;;;16.50;99.90;;;;;;4969529;28;20505;-72
2023/10/20 07:32:25;;;;;;;5.00;4.50;;;16.50;99.90;;;;;;4981707;28;20449;-71
2023/10/20 07:34:51;;;;;;;5.10;4.70;;;16.50;99.90;;;;;;4956635;28;20535;-72
2023/10/20 07:37:17;;;;;;;5.03;4.63;;;16.50;99.90;;;;;;4982157;28;20440;-73
2023/10/20 07:39:47;;;;;;;6.37;4.63;;;16.50;99.90;;;;;;4977102;28;20450;-71
2023/10/20 07:42:16;;;;;;;5.27;4.77;;;16.50;99.90;;;;;;5001314;28;20608;-72
2023/10/20 07:44:42;;;;;;;9.00;4.77;;;16.50;99.90;;;;;;4975989;28;20445;-72
2023/10/20 07:47:08;;;;;;;5.70;5.20;;;16.50;99.90;;;;;;4976462;28;20450;-73
2023/10/20 07:49:39;;;;;;;7.40;6.63;;;16.50;99.90;;;;;;4966437;28;21271;-73
2023/10/20 07:52:08;;;;;;;8.23;6.70;;;16.50;99.90;;;;;;4975801;28;20441;-72
2023/10/20 07:54:34;;;;;;;7.20;5.57;;;16.50;99.90;;;;;;4983223;28;20506;-73
2023/10/20 07:57:03;;;;;;;8.20;7.40;;;16.50;99.90;;;;;;4967182;28;20445;-73
2023/10/20 07:59:30;;;;;;;7.97;7.20;;;16.50;99.90;;;;;;4958155;28;20467;-70
2023/10/20 08:01:56;;;;;;;7.00;6.40;;;16.50;99.90;;;;;;4954149;28;20463;-70
2023/10/20 08:04:22;;;;;;;6.00;5.50;;;16.50;99.90;;;;;;4991617;28;20446;-70
2023/10/20 08:06:48;;;;;;;6.90;6.20;;;16.50;99.90;;;;;;4980815;28;20493;-70
2023/10/20 08:09:19;;;;;;;7.80;6.03;;;16.50;99.90;;;;;;4981599;28;20481;-71
2023/10/20 08:11:45;;;;;;;5.97;5.37;;;16.50;99.90;;;;;;4971901;28;20449;-72
2023/10/20 08:14:14;;;;;;;5.50;4.67;;;16.50;99.90;;;;;;4973688;28;20426;-71
2023/10/20 08:16:40;;;;;;;5.27;4.80;;;16.50;99.90;;;;;;4972771;28;20946;-69
2023/10/20 08:19:10;;;;;;;5.90;5.40;;;16.50;99.90;;;;;;4956686;28;20453;-67
2023/10/20 08:21:45;;;;;;;5.83;5.20;;;16.50;99.90;;;;;;4991810;28;20487;-66
2023/10/20 08:24:11;;;;;;;7.00;5.30;;;16.50;99.90;;;;;;4981164;28;20454;-67
2023/10/20 08:26:41;;;;;;;5.50;4.97;;;16.50;99.90;;;;;;4949950;28;20455;-66
2023/10/20 08:29:11;;;;;;;5.60;5.03;;;16.50;99.90;;;;;;4983589;28;20593;-67
2023/10/20 08:31:41;;;;;;;5.13;4.70;;;16.50;99.90;;;;;;4981330;28;20918;-67
2023/10/20 08:34:12;;;;;;;6.00;5.30;;;16.50;99.90;;;;;;4981328;28;20459;-66
2023/10/20 08:36:38;;;;;;;4.57;4.23;;;16.50;99.90;;;;;;4965219;28;21225;-66
2023/10/20 08:39:13;;;;;;;5.23;4.80;;;16.50;99.90;;;;;;4981639;28;20538;-66
2023/10/20 08:41:42;;;;;;;5.13;4.53;;;16.50;99.90;;;;;;4986392;28;20879;-66
2023/10/20 08:44:11;;;;;;;5.20;4.70;;;16.50;99.90;;;;;;4989657;28;20461;-66
2023/10/20 08:46:41;;;;;;;5.03;4.60;;;16.50;99.90;;;;;;4999653;28;20502;-66
2023/10/20 08:49:10;;;;;;;5.27;4.77;;;16.50;99.90;;;;;;4990945;28;20582;-66
2023/10/20 08:51:40;;;;;;;4.80;4.37;;;16.50;99.90;;;;;;4935755;28;20437;-66
2023/10/20 08:54:09;;;;;;;5.20;4.70;;;16.50;99.90;;;;;;4974242;28;20453;-66
2023/10/20 08:56:36;;;;;;;5.00;4.50;;;16.50;99.90;;;;;;4990755;28;20436;-67
2023/10/20 08:59:06;;;;;;;4.77;4.30;;;16.50;99.90;;;;;;5000147;28;20529;-66
2023/10/20 09:01:37;;;;;;;4.93;4.37;;;16.50;99.90;;;;;;4983385;28;20546;-66
2023/10/20 09:04:07;;;;;;;4.60;4.30;;;16.50;99.90;;;;;;4990633;28;20449;-67
2023/10/20 09:06:38;;;;;;;4.60;4.20;;;16.50;99.90;;;;;;4998577;28;20438;-67
2023/10/20 09:09:05;;;;;;;5.33;4.93;;;16.50;99.90;;;;;;4985304;28;20474;-67
2023/10/20 09:11:35;;;;;;;4.50;4.10;;;16.50;99.90;;;;;;4976941;28;20440;-67
2023/10/20 09:14:02;;;;;;;4.63;4.23;;;16.50;99.90;;;;;;4961663;28;20466;-67
2023/10/20 09:16:28;;;;;;;4.30;4.00;;;16.50;99.90;;;;;;4981506;28;20963;-70
2023/10/20 09:18:55;;;;;;;4.27;3.90;;;16.50;99.90;;;;;;4974437;28;20540;-68
2023/10/20 09:21:23;;;;;;;4.30;3.90;;;16.50;99.90;;;;;;4953674;28;20455;-68
2023/10/20 09:23:57;;;;;;;4.27;3.97;;;16.50;99.90;;;;;;4999000;28;20434;-68
2023/10/20 09:26:26;;;;;;;4.30;4.00;;;16.50;99.90;;;;;;4981088;28;20460;-68
2023/10/20 09:28:54;;;;;;;4.10;3.80;;;16.50;99.90;;;;;;4989448;28;20474;-68
2023/10/20 09:31:21;;;;;;;4.70;4.20;;;16.50;99.90;;;;;;4988446;23;20594;-69
2023/10/20 09:33:50;;;;;;;6.33;4.67;;;16.50;99.90;;;;;;4941954;28;20461;-66
2023/10/20 09:36:22;;;;;;;4.33;4.00;;;16.50;99.90;;;;;;4973908;28;20414;-68
2023/10/20 09:38:54;;;;;;;4.10;3.80;;;16.50;99.90;;;;;;4945455;28;21020;-67
2023/10/20 09:41:27;;;;;;;3.90;3.60;;;16.50;99.90;;;;;;4979571;28;20410;-65
2023/10/20 09:44:03;;;;;;;3.90;3.60;;;16.50;99.90;;;;;;4978547;28;20422;-69
2023/10/20 09:46:34;;;;;;;4.50;4.13;;;16.50;99.90;;;;;;4965212;28;20478;-69
2023/10/20 09:49:07;;;;;;;4.10;3.80;;;16.50;99.90;;;;;;4965115;28;21009;-70
2023/10/20 09:51:33;;;;;;;3.77;3.47;;;16.50;99.90;;;;;;4984604;28;20528;-70
2023/10/20 09:54:00;;;;;;;4.10;3.70;;;16.50;99.90;;;;;;4949131;28;20838;-69
2023/10/20 09:56:32;;;;;;;4.20;3.77;;;16.50;99.90;;;;;;4932813;28;20433;-76
2023/10/20 09:59:01;;;;;;;4.57;4.10;;;16.50;99.90;;;;;;4948124;28;20483;-73
2023/10/20 10:01:27;;;;;;;4.03;3.73;;;16.40;99.90;;;;;;4947588;28;21048;-73
2023/10/20 10:04:05;;;;;;;4.37;3.97;;;16.50;99.90;;;;;;4937590;28;20471;-75
2023/10/20 10:06:47;;;;;;;4.33;4.03;;;16.50;99.90;;;;;;4949171;28;20428;-72
2023/10/20 10:09:20;;;;;;;4.03;3.63;;;16.50;99.90;;;;;;4947604;28;20508;-72
2023/10/20 10:11:46;;;;;;;3.90;3.60;;;16.50;99.90;;;;;;4948354;28;20486;-72
2023/10/20 10:14:20;;;;;;;3.83;3.53;;;16.50;99.90;;;;;;4965013;28;21263;-72
2023/10/20 10:16:55;;;;;;;4.03;3.60;;;16.50;99.90;;;;;;4947049;28;20963;-70
2023/10/20 10:19:25;;;;;;;3.40;3.20;;;16.50;99.90;;;;;;4946385;28;20441;-71
2023/10/20 10:21:54;;;;;;;3.87;3.57;;;16.50;99.90;;;;;;4946725;28;20474;-70
2023/10/20 10:24:22;;;;;;;3.33;3.10;;;16.50;99.90;;;;;;4947207;28;20713;-71
2023/10/20 10:27:06;;;;;;;4.17;3.53;;;16.50;99.90;;;;;;4946954;28;20444;-72
2023/10/20 10:32:36;;;;;;;3.60;3.30;;;16.50;99.90;;;;;;4950072;28;20435;-72
2023/10/20 10:35:04;;;;;;;3.80;3.50;;;16.50;99.90;;;;;;4966279;28;20781;-71
2023/10/20 10:37:32;;;;;;;3.97;3.67;;;16.50;99.90;;;;;;4965824;28;20434;-71
2023/10/20 10:40:07;;;;;;;3.87;3.57;;;16.40;99.90;;;;;;4965662;28;20453;-72
2023/10/20 10:42:49;;;;;;;4.13;3.83;;;16.50;99.90;;;;;;4965479;28;20457;-69
2023/10/20 10:45:35;;;;;;;3.13;2.93;;;16.50;99.90;;;;;;4949902;28;20480;-69
2023/10/20 10:48:11;;;;;;;4.20;3.90;;;16.50;99.90;;;;;;4965296;28;21187;-70
2023/10/20 10:50:44;;;;;;;4.67;3.17;;;16.50;99.90;;;;;;4950738;28;20425;-73
2023/10/20 10:53:11;;;;;;;3.57;3.27;;;16.50;99.90;;;;;;4967586;28;20987;-72
2023/10/20 10:55:41;;;;;;;3.60;3.40;;;16.50;99.90;;;;;;4965029;28;20881;-75
2023/10/20 10:58:13;;;;;;;3.00;2.80;;;16.50;99.90;;;;;;4950421;28;20486;-75
2023/10/20 11:00:41;;;;;;;3.03;2.80;;;16.50;99.90;;;;;;4930275;28;20905;-75
2023/10/20 11:03:07;;;;;;;3.40;3.10;;;16.50;99.90;;;;;;4943571;28;21981;-72
2023/10/20 11:05:34;;;;;;;3.37;3.17;;;16.50;99.90;;;;;;4934707;28;20452;-73
2023/10/20 11:08:04;;;;;;;3.73;3.40;;;16.50;99.90;;;;;;4915208;28;20561;-76
2023/10/20 11:10:42;;;;;;;3.70;3.40;;;16.50;99.90;;;;;;4943096;28;20447;-75
2023/10/20 11:13:10;;;;;;;3.90;3.60;;;16.50;99.90;;;;;;4933673;29;20525;-75
2023/10/20 11:15:37;;;;;;;3.80;3.50;;;16.50;99.90;;;;;;4936397;28;21370;-76
2023/10/20 11:18:10;;;;;;;3.50;3.20;;;16.50;99.90;;;;;;4944508;28;20527;-73
2023/10/20 11:20:38;;;;;;;4.50;4.10;;;16.50;99.90;;;;;;4960257;28;20452;-73
2023/10/20 11:23:08;;;;;;;4.50;4.20;;;16.50;99.90;;;;;;4943760;28;20447;-73
2023/10/20 11:25:35;;;;;;;4.33;4.00;;;16.50;99.90;;;;;;4941527;28;20562;-74
2023/10/20 11:28:04;;;;;;;5.03;4.23;;;16.50;99.90;;;;;;4933381;28;20488;-74
2023/10/20 11:30:35;;;;;;;4.03;3.70;;;16.50;99.90;;;;;;4917858;28;20472;-75
2023/10/20 11:33:03;;;;;;;5.40;5.00;;;16.50;99.90;;;;;;4946647;28;21220;-75
2023/10/20 11:35:29;;;;;;;4.70;4.23;;;16.50;99.90;;;;;;4970597;28;20436;-75
2023/10/20 11:37:57;;;;;;;4.73;4.33;;;16.50;99.90;;;;;;4947711;28;21283;-75
2023/10/20 11:40:26;;;;;;;5.43;4.90;;;16.50;99.90;;;;;;4982215;28;20454;-75
2023/10/20 11:42:57;;;;;;;4.20;3.80;;;16.50;99.90;;;;;;4950294;28;20908;-76
2023/10/20 11:45:24;;;;;;;5.00;4.60;;;16.50;99.90;;;;;;4979771;28;20537;-75
2023/10/20 11:47:52;;;;;;;3.83;3.53;;;16.50;99.90;;;;;;4944424;28;20836;-75
2023/10/20 11:50:19;;;;;;;4.93;4.40;;;16.50;99.90;;;;;;4977467;28;20446;-75
2023/10/20 11:52:49;;;;;;;4.90;4.50;;;16.50;99.90;;;;;;4973240;28;20449;-75
2023/10/20 11:55:15;;;;;;;4.70;4.30;;;16.50;99.90;;;;;;4961936;28;20540;-75
2023/10/20 11:57:46;;;;;;;5.30;4.07;;;16.50;99.90;;;;;;4970960;28;20428;-75
2023/10/20 12:00:15;;;;;;;5.47;4.97;;;16.50;99.90;;;;;;4947304;28;20569;-75
2023/10/20 12:02:42;;;;;;;4.60;4.20;;;16.50;99.90;;;;;;4951850;28;20426;-76
2023/10/20 12:05:09;;;;;;;4.77;4.33;;;16.50;99.90;;;;;;4940907;28;21054;-76
2023/10/20 12:07:37;;;;;;;4.33;3.93;;;16.50;99.90;;;;;;4962111;28;20438;-75
2023/10/20 12:10:05;;;;;;;4.60;4.20;;;16.60;99.90;;;;;;4954847;28;20452;-75
2023/10/20 12:12:34;;;;;;;4.30;3.90;;;16.50;99.90;;;;;;4972161;28;20514;-75
2023/10/20 12:15:02;;;;;;;4.37;3.97;;;16.60;99.90;;;;;;4978723;28;21020;-75
2023/10/20 12:17:32;;;;;;;5.37;4.40;;;16.60;99.90;;;;;;4980994;28;20446;-75
2023/10/20 12:20:01;;;;;;;4.80;4.40;;;16.60;99.90;;;;;;4963507;28;20523;-75
2023/10/20 12:22:29;;;;;;;5.13;4.63;;;16.50;99.90;;;;;;4963364;28;21100;-74
2023/10/20 12:24:55;;;;;;;5.10;4.60;;;16.60;99.90;;;;;;4942007;28;20476;-75
2023/10/20 12:27:21;;;;;;;4.53;4.13;;;16.60;99.90;;;;;;4960422;28;21079;-73
2023/10/20 12:29:52;;;;;;;4.40;4.10;;;16.60;99.90;;;;;;4947754;28;20464;-73
2023/10/20 12:32:23;;;;;;;4.50;4.10;;;16.50;99.90;;;;;;4964090;28;20492;-74
2023/10/20 12:34:49;;;;;;;4.43;4.03;;;16.60;99.90;;;;;;4960296;28;20458;-74
2023/10/20 12:37:15;;;;;;;4.23;3.93;;;16.60;99.90;;;;;;4960437;28;21172;-74
2023/10/20 12:39:43;;;;;;;4.50;4.10;;;16.60;99.90;;;;;;4954526;28;21192;-73
2023/10/20 12:42:12;;;;;;;4.83;4.30;;;16.50;99.90;;;;;;4923566;28;20445;-74
2023/10/20 12:44:38;;;;;;;4.83;4.27;;;16.60;99.90;;;;;;4945855;28;20474;-73
2023/10/20 12:47:06;;;;;;;4.30;4.00;;;16.50;99.90;;;;;;4956197;28;21080;-73
2023/10/20 12:49:34;;;;;;;3.93;3.67;;;16.50;99.90;;;;;;4935808;28;20537;-73
2023/10/20 12:52:00;;;;;;;3.93;3.63;;;16.50;99.90;;;;;;4931358;28;20450;-74
2023/10/20 12:54:34;;;;;;;4.30;3.90;;;16.50;99.90;;;;;;4962239;28;20422;-74
2023/10/20 12:57:00;;;;;;;4.10;3.80;;;16.50;99.90;;;;;;4918428;28;20442;-74
2023/10/20 12:59:26;;;;;;;3.90;3.60;;;16.60;99.90;;;;;;4961504;28;20477;-76
2023/10/20 13:01:54;;;;;;;4.33;3.93;;;16.60;99.90;;;;;;4919484;28;20534;-74
2023/10/20 13:04:20;;;;;;;4.40;3.93;;;16.50;99.90;;;;;;4931486;28;20480;-73
2023/10/20 13:06:46;;;;;;;4.20;3.80;;;16.50;99.90;;;;;;4952138;28;20447;-74
2023/10/20 13:09:19;;;;;;;4.00;3.70;;;16.50;99.90;;;;;;4969385;28;20505;-73
2023/10/20 13:11:52;;;;;;;4.30;3.90;;;16.50;99.90;;;;;;4936789;28;20448;-74
2023/10/20 13:14:23;;;;;;;4.37;4.07;;;16.50;99.90;;;;;;4952546;28;20427;-74
2023/10/20 13:16:50;;;;;;;4.10;3.70;;;16.50;99.90;;;;;;4907922;29;20509;-74
2023/10/20 13:19:16;;;;;;;4.33;3.93;;;16.60;99.90;;;;;;4918206;28;20516;-73
2023/10/20 13:21:42;;;;;;;5.37;3.87;;;16.50;99.90;;;;;;4968795;28;20419;-74
2023/10/20 13:24:09;;;;;;;4.53;4.13;;;16.50;99.90;;;;;;4958885;28;21201;-74
2023/10/20 13:26:35;;;;;;;4.30;4.00;;;16.60;99.90;;;;;;4953038;28;20463;-74
2023/10/20 13:29:01;;;;;;;4.57;4.23;;;16.60;99.90;;;;;;4960427;28;20474;-74
2023/10/20 13:31:27;;;;;;;4.67;4.30;;;16.50;99.90;;;;;;4946841;28;20468;-75
2023/10/20 13:33:58;;;;;;;3.97;3.60;;;16.60;99.90;;;;;;4954695;28;20431;-74
2023/10/20 13:36:26;;;;;;;4.23;3.80;;;16.60;99.90;;;;;;4979631;28;20591;-75